sensor_id;sensor_type;location;lat;lon;timestamp;temperature;humidity
22682;DHT22;11508;50.856;4.380;2023-04-03T00:01:31;6.40;99.90
22682;DHT22;11508;50.856;4.380;2023-04-03T00:03:57;6.30;99.90
22682;DHT22;11508;50.856;4.380;2023-04-03T00:06:23;6.30;99.90
22682;DHT22;11508;50.856;4.380;2023-04-03T00:08:50;6.20;99.90
22682;DHT22;11508;50.856;4.380;2023-04-03T00:11:17;6.10;99.90
22682;DHT22;11508;50.856;4.380;2023-04-03T00:13:43;6.30;99.90
22682;DHT22;11508;50.856;4.380;2023-04-03T00:16:09;6.20;99.90
22682;DHT22;11508;50.856;4.380;2023-04-03T00:18:36;6.20;99.90
22682;DHT22;11508;50.856;4.380;2023-04-03T00:21:02;6.20;99.90
22682;DHT22;11508;50.856;4.380;2023-04-03T00:23:28;6.00;99.90
22682;DHT22;11508;50.856;4.380;2023-04-03T00:25:54;5.90;99.90
22682;DHT22;11508;50.856;4.380;2023-04-03T00:28:20;5.90;99.90
22682;DHT22;11508;50.856;4.380;2023-04-03T00:30:46;6.00;99.90
22682;DHT22;11508;50.856;4.380;2023-04-03T00:33:13;6.00;99.90
22682;DHT22;11508;50.856;4.380;2023-04-03T00:35:39;6.10;99.90
22682;DHT22;11508;50.856;4.380;2023-04-03T00:38:05;6.10;99.90
22682;DHT22;11508;50.856;4.380;2023-04-03T00:40:41;6.00;99.90
22682;DHT22;11508;50.856;4.380;2023-04-03T00:43:33;5.90;99.90
22682;DHT22;11508;50.856;4.380;2023-04-03T00:46:00;5.60;99.90
22682;DHT22;11508;50.856;4.380;2023-04-03T00:48:35;5.70;99.90
22682;DHT22;11508;50.856;4.380;2023-04-03T00:51:03;5.60;99.90
22682;DHT22;11508;50.856;4.380;2023-04-03T00:53:33;5.80;99.90
22682;DHT22;11508;50.856;4.380;2023-04-03T00:56:01;6.00;99.90
22682;DHT22;11508;50.856;4.380;2023-04-03T00:58:33;6.00;99.90
22682;DHT22;11508;50.856;4.380;2023-04-03T01:01:05;5.90;99.90
22682;DHT22;11508;50.856;4.380;2023-04-03T01:03:32;5.80;99.90
22682;DHT22;11508;50.856;4.380;2023-04-03T01:05:58;5.80;99.90
22682;DHT22;11508;50.856;4.380;2023-04-03T01:08:23;5.70;99.90
22682;DHT22;11508;50.856;4.380;2023-04-03T01:10:49;5.60;99.90
22682;DHT22;11508;50.856;4.380;2023-04-03T01:13:31;5.60;99.90
22682;DHT22;11508;50.856;4.380;2023-04-03T01:16:01;5.50;99.90
22682;DHT22;11508;50.856;4.380;2023-04-03T01:18:27;5.50;99.90
22682;DHT22;11508;50.856;4.380;2023-04-03T01:24:04;5.60;99.90
22682;DHT22;11508;50.856;4.380;2023-04-03T01:26:33;5.60;99.90
22682;DHT22;11508;50.856;4.380;2023-04-03T01:29:00;5.60;99.90
22682;DHT22;11508;50.856;4.380;2023-04-03T01:34:11;5.50;99.90
22682;DHT22;11508;50.856;4.380;2023-04-03T01:36:36;5.60;99.90
22682;DHT22;11508;50.856;4.380;2023-04-03T01:39:02;5.70;99.90
22682;DHT22;11508;50.856;4.380;2023-04-03T01:41:29;5.50;99.90
22682;DHT22;11508;50.856;4.380;2023-04-03T01:43:54;5.40;99.90
22682;DHT22;11508;50.856;4.380;2023-04-03T01:46:21;5.50;99.90
22682;DHT22;11508;50.856;4.380;2023-04-03T01:48:47;5.50;99.90
22682;DHT22;11508;50.856;4.380;2023-04-03T01:51:13;5.40;99.90
22682;DHT22;11508;50.856;4.380;2023-04-03T01:53:39;5.30;99.90
22682;DHT22;11508;50.856;4.380;2023-04-03T01:56:05;5.40;99.90
22682;DHT22;11508;50.856;4.380;2023-04-03T01:58:31;5.30;99.90
22682;DHT22;11508;50.856;4.380;2023-04-03T02:00:57;5.40;99.90
22682;DHT22;11508;50.856;4.380;2023-04-03T02:03:23;5.40;99.90
22682;DHT22;11508;50.856;4.380;2023-04-03T02:05:49;5.30;99.90
22682;DHT22;11508;50.856;4.380;2023-04-03T02:08:15;5.30;99.90
22682;DHT22;11508;50.856;4.380;2023-04-03T02:10:43;5.30;99.90
22682;DHT22;11508;50.856;4.380;2023-04-03T02:13:10;5.20;99.90
22682;DHT22;11508;50.856;4.380;2023-04-03T02:15:38;5.50;99.90
22682;DHT22;11508;50.856;4.380;2023-04-03T02:18:04;5.20;99.90
22682;DHT22;11508;50.856;4.380;2023-04-03T02:20:30;5.00;99.90
22682;DHT22;11508;50.856;4.380;2023-04-03T02:22:55;5.20;99.90
22682;DHT22;11508;50.856;4.380;2023-04-03T02:25:22;5.00;99.90
22682;DHT22;11508;50.856;4.380;2023-04-03T02:27:48;5.00;99.90
22682;DHT22;11508;50.856;4.380;2023-04-03T02:30:14;4.90;99.90
22682;DHT22;11508;50.856;4.380;2023-04-03T02:32:41;5.00;99.90
22682;DHT22;11508;50.856;4.380;2023-04-03T02:35:08;4.90;99.90
22682;DHT22;11508;50.856;4.380;2023-04-03T02:37:33;5.00;99.90
22682;DHT22;11508;50.856;4.380;2023-04-03T02:40:00;4.80;99.90
22682;DHT22;11508;50.856;4.380;2023-04-03T02:42:25;4.90;1.00
22682;DHT22;11508;50.856;4.380;2023-04-03T02:44:51;4.70;99.90
22682;DHT22;11508;50.856;4.380;2023-04-03T02:47:17;4.70;99.90
22682;DHT22;11508;50.856;4.380;2023-04-03T02:49:42;4.60;1.00
22682;DHT22;11508;50.856;4.380;2023-04-03T02:52:10;4.50;1.00
22682;DHT22;11508;50.856;4.380;2023-04-03T02:54:36;4.60;1.00
22682;DHT22;11508;50.856;4.380;2023-04-03T02:57:01;4.60;1.00
22682;DHT22;11508;50.856;4.380;2023-04-03T02:59:27;4.60;1.00
22682;DHT22;11508;50.856;4.380;2023-04-03T03:01:53;4.60;99.90
22682;DHT22;11508;50.856;4.380;2023-04-03T03:04:19;4.50;1.00
22682;DHT22;11508;50.856;4.380;2023-04-03T03:06:44;4.40;1.00
22682;DHT22;11508;50.856;4.380;2023-04-03T03:09:10;4.40;1.00
22682;DHT22;11508;50.856;4.380;2023-04-03T03:11:36;4.60;1.00
22682;DHT22;11508;50.856;4.380;2023-04-03T03:14:01;4.60;1.00
22682;DHT22;11508;50.856;4.380;2023-04-03T03:16:27;4.70;1.00
22682;DHT22;11508;50.856;4.380;2023-04-03T03:18:53;4.50;1.00
22682;DHT22;11508;50.856;4.380;2023-04-03T03:21:18;4.50;1.00
22682;DHT22;11508;50.856;4.380;2023-04-03T03:23:44;4.50;1.00
22682;DHT22;11508;50.856;4.380;2023-04-03T03:26:10;4.60;1.00
22682;DHT22;11508;50.856;4.380;2023-04-03T03:28:37;4.70;1.00
22682;DHT22;11508;50.856;4.380;2023-04-03T03:31:05;4.40;99.90
22682;DHT22;11508;50.856;4.380;2023-04-03T03:33:31;4.40;1.00
22682;DHT22;11508;50.856;4.380;2023-04-03T03:35:57;4.40;1.00
22682;DHT22;11508;50.856;4.380;2023-04-03T03:38:23;4.40;1.00
22682;DHT22;11508;50.856;4.380;2023-04-03T03:40:50;4.50;1.00
22682;DHT22;11508;50.856;4.380;2023-04-03T03:43:16;4.60;1.00
22682;DHT22;11508;50.856;4.380;2023-04-03T03:45:42;4.50;1.00
22682;DHT22;11508;50.856;4.380;2023-04-03T03:48:08;4.50;1.00
22682;DHT22;11508;50.856;4.380;2023-04-03T03:50:34;4.30;1.00
22682;DHT22;11508;50.856;4.380;2023-04-03T03:53:01;4.40;1.00
22682;DHT22;11508;50.856;4.380;2023-04-03T03:55:27;4.30;1.00
22682;DHT22;11508;50.856;4.380;2023-04-03T03:57:53;4.30;1.00
22682;DHT22;11508;50.856;4.380;2023-04-03T04:00:18;4.40;1.00
22682;DHT22;11508;50.856;4.380;2023-04-03T04:02:44;4.40;1.00
22682;DHT22;11508;50.856;4.380;2023-04-03T04:05:11;4.40;1.00
22682;DHT22;11508;50.856;4.380;2023-04-03T04:07:36;4.40;1.00
22682;DHT22;11508;50.856;4.380;2023-04-03T04:10:03;4.20;1.00
22682;DHT22;11508;50.856;4.380;2023-04-03T04:12:28;4.10;1.00
22682;DHT22;11508;50.856;4.380;2023-04-03T04:14:54;4.20;1.00
22682;DHT22;11508;50.856;4.380;2023-04-03T04:17:20;4.10;1.00
22682;DHT22;11508;50.856;4.380;2023-04-03T04:19:46;4.30;1.00
22682;DHT22;11508;50.856;4.380;2023-04-03T04:22:12;4.40;1.00
22682;DHT22;11508;50.856;4.380;2023-04-03T04:24:38;4.20;1.00
22682;DHT22;11508;50.856;4.380;2023-04-03T04:27:03;4.10;1.00
22682;DHT22;11508;50.856;4.380;2023-04-03T04:29:29;4.20;1.00
22682;DHT22;11508;50.856;4.380;2023-04-03T04:31:55;4.40;1.00
22682;DHT22;11508;50.856;4.380;2023-04-03T04:34:21;4.30;1.00
22682;DHT22;11508;50.856;4.380;2023-04-03T04:36:47;4.20;1.00
22682;DHT22;11508;50.856;4.380;2023-04-03T04:39:12;4.40;1.00
22682;DHT22;11508;50.856;4.380;2023-04-03T04:41:38;4.40;1.00
22682;DHT22;11508;50.856;4.380;2023-04-03T04:44:03;4.40;1.00
22682;DHT22;11508;50.856;4.380;2023-04-03T04:46:29;4.40;1.00
22682;DHT22;11508;50.856;4.380;2023-04-03T04:48:55;4.20;1.00
22682;DHT22;11508;50.856;4.380;2023-04-03T04:51:20;4.00;1.00
22682;DHT22;11508;50.856;4.380;2023-04-03T04:53:46;4.00;1.00
22682;DHT22;11508;50.856;4.380;2023-04-03T04:56:12;3.90;1.00
22682;DHT22;11508;50.856;4.380;2023-04-03T04:58:38;4.00;1.00
22682;DHT22;11508;50.856;4.380;2023-04-03T05:01:05;4.00;1.00
22682;DHT22;11508;50.856;4.380;2023-04-03T05:03:31;4.00;1.00
22682;DHT22;11508;50.856;4.380;2023-04-03T05:05:57;3.90;1.00
22682;DHT22;11508;50.856;4.380;2023-04-03T05:08:23;3.80;1.00
22682;DHT22;11508;50.856;4.380;2023-04-03T05:10:49;3.90;1.00
22682;DHT22;11508;50.856;4.380;2023-04-03T05:13:15;3.80;1.00
22682;DHT22;11508;50.856;4.380;2023-04-03T05:15:41;3.90;1.00
22682;DHT22;11508;50.856;4.380;2023-04-03T05:18:06;3.90;1.00
22682;DHT22;11508;50.856;4.380;2023-04-03T05:20:33;3.90;1.00
22682;DHT22;11508;50.856;4.380;2023-04-03T05:23:00;4.00;1.00
22682;DHT22;11508;50.856;4.380;2023-04-03T05:25:26;4.10;1.00
22682;DHT22;11508;50.856;4.380;2023-04-03T05:27:52;4.20;1.00
22682;DHT22;11508;50.856;4.380;2023-04-03T05:30:18;4.30;1.00
22682;DHT22;11508;50.856;4.380;2023-04-03T05:32:43;4.10;1.00
22682;DHT22;11508;50.856;4.380;2023-04-03T05:35:09;4.00;1.00
22682;DHT22;11508;50.856;4.380;2023-04-03T05:37:35;3.90;1.00
22682;DHT22;11508;50.856;4.380;2023-04-03T05:40:03;3.90;1.00
22682;DHT22;11508;50.856;4.380;2023-04-03T05:42:28;3.90;1.00
22682;DHT22;11508;50.856;4.380;2023-04-03T05:44:55;4.10;1.00
22682;DHT22;11508;50.856;4.380;2023-04-03T05:47:20;4.40;1.00
22682;DHT22;11508;50.856;4.380;2023-04-03T05:49:46;4.40;1.00
22682;DHT22;11508;50.856;4.380;2023-04-03T05:52:25;4.20;1.00
22682;DHT22;11508;50.856;4.380;2023-04-03T05:54:52;4.40;1.00
22682;DHT22;11508;50.856;4.380;2023-04-03T05:57:19;4.30;1.00
22682;DHT22;11508;50.856;4.380;2023-04-03T05:59:46;4.40;1.00
22682;DHT22;11508;50.856;4.380;2023-04-03T06:02:14;4.50;1.00
22682;DHT22;11508;50.856;4.380;2023-04-03T06:04:40;4.60;1.00
22682;DHT22;11508;50.856;4.380;2023-04-03T06:07:06;4.60;1.00
22682;DHT22;11508;50.856;4.380;2023-04-03T06:09:33;4.60;99.90
22682;DHT22;11508;50.856;4.380;2023-04-03T06:11:59;4.70;99.90
22682;DHT22;11508;50.856;4.380;2023-04-03T06:14:25;4.40;1.00
22682;DHT22;11508;50.856;4.380;2023-04-03T06:16:52;4.50;1.00
22682;DHT22;11508;50.856;4.380;2023-04-03T06:19:19;4.50;1.00
22682;DHT22;11508;50.856;4.380;2023-04-03T06:21:45;4.20;1.00
22682;DHT22;11508;50.856;4.380;2023-04-03T06:24:14;4.40;1.00
22682;DHT22;11508;50.856;4.380;2023-04-03T06:26:41;4.50;1.00
22682;DHT22;11508;50.856;4.380;2023-04-03T06:29:07;4.60;1.00
22682;DHT22;11508;50.856;4.380;2023-04-03T06:31:34;4.70;99.90
22682;DHT22;11508;50.856;4.380;2023-04-03T06:34:02;4.40;1.00
22682;DHT22;11508;50.856;4.380;2023-04-03T06:36:28;4.50;1.00
22682;DHT22;11508;50.856;4.380;2023-04-03T06:38:55;4.70;1.00
22682;DHT22;11508;50.856;4.380;2023-04-03T06:41:21;4.90;1.00
22682;DHT22;11508;50.856;4.380;2023-04-03T06:43:47;4.70;99.90
22682;DHT22;11508;50.856;4.380;2023-04-03T06:46:17;4.90;99.90
22682;DHT22;11508;50.856;4.380;2023-04-03T06:48:43;4.90;99.90
22682;DHT22;11508;50.856;4.380;2023-04-03T06:51:21;5.30;99.90
22682;DHT22;11508;50.856;4.380;2023-04-03T06:53:50;5.40;99.90
22682;DHT22;11508;50.856;4.380;2023-04-03T06:56:17;5.50;99.90
22682;DHT22;11508;50.856;4.380;2023-04-03T06:58:43;5.50;99.90
22682;DHT22;11508;50.856;4.380;2023-04-03T07:01:11;5.40;99.90
22682;DHT22;11508;50.856;4.380;2023-04-03T07:03:38;5.50;99.90
22682;DHT22;11508;50.856;4.380;2023-04-03T07:06:04;5.60;99.90
22682;DHT22;11508;50.856;4.380;2023-04-03T07:08:31;5.70;99.90
22682;DHT22;11508;50.856;4.380;2023-04-03T07:10:57;5.50;99.90
22682;DHT22;11508;50.856;4.380;2023-04-03T07:13:22;5.40;99.90
22682;DHT22;11508;50.856;4.380;2023-04-03T07:15:48;5.70;99.90
22682;DHT22;11508;50.856;4.380;2023-04-03T07:18:15;5.60;99.90
22682;DHT22;11508;50.856;4.380;2023-04-03T07:20:42;5.60;99.90
22682;DHT22;11508;50.856;4.380;2023-04-03T07:23:08;5.20;99.90
22682;DHT22;11508;50.856;4.380;2023-04-03T07:25:34;4.90;99.90
22682;DHT22;11508;50.856;4.380;2023-04-03T07:27:59;4.90;99.90
22682;DHT22;11508;50.856;4.380;2023-04-03T07:30:26;5.10;99.90
22682;DHT22;11508;50.856;4.380;2023-04-03T07:32:52;5.10;99.90
22682;DHT22;11508;50.856;4.380;2023-04-03T07:35:18;5.20;99.90
22682;DHT22;11508;50.856;4.380;2023-04-03T07:37:44;5.30;99.90
22682;DHT22;11508;50.856;4.380;2023-04-03T07:40:10;5.10;99.90
22682;DHT22;11508;50.856;4.380;2023-04-03T07:42:36;5.30;99.90
22682;DHT22;11508;50.856;4.380;2023-04-03T07:45:03;5.50;99.90
22682;DHT22;11508;50.856;4.380;2023-04-03T07:47:29;5.50;99.90
22682;DHT22;11508;50.856;4.380;2023-04-03T07:50:01;5.50;99.90
22682;DHT22;11508;50.856;4.380;2023-04-03T07:55:05;5.60;99.90
22682;DHT22;11508;50.856;4.380;2023-04-03T07:57:31;5.70;99.90
22682;DHT22;11508;50.856;4.380;2023-04-03T07:59:56;5.70;99.90
22682;DHT22;11508;50.856;4.380;2023-04-03T08:02:22;6.00;99.90
22682;DHT22;11508;50.856;4.380;2023-04-03T08:04:48;5.90;99.90
22682;DHT22;11508;50.856;4.380;2023-04-03T08:07:13;5.80;99.90
22682;DHT22;11508;50.856;4.380;2023-04-03T08:09:39;6.00;99.90
22682;DHT22;11508;50.856;4.380;2023-04-03T08:12:05;6.40;63.70
22682;DHT22;11508;50.856;4.380;2023-04-03T08:14:31;6.40;1.00
22682;DHT22;11508;50.856;4.380;2023-04-03T08:17:00;6.50;99.90
22682;DHT22;11508;50.856;4.380;2023-04-03T08:19:26;6.40;99.90
22682;DHT22;11508;50.856;4.380;2023-04-03T08:21:53;6.60;99.90
22682;DHT22;11508;50.856;4.380;2023-04-03T08:24:18;6.80;99.90
22682;DHT22;11508;50.856;4.380;2023-04-03T08:26:44;6.90;46.90
22682;DHT22;11508;50.856;4.380;2023-04-03T08:29:10;7.00;99.90
22682;DHT22;11508;50.856;4.380;2023-04-03T08:31:36;6.90;99.90
22682;DHT22;11508;50.856;4.380;2023-04-03T08:34:03;7.00;99.90
22682;DHT22;11508;50.856;4.380;2023-04-03T08:36:29;7.20;1.00
22682;DHT22;11508;50.856;4.380;2023-04-03T08:38:56;7.20;99.90
22682;DHT22;11508;50.856;4.380;2023-04-03T08:41:35;7.20;1.00
22682;DHT22;11508;50.856;4.380;2023-04-03T08:44:47;7.10;1.00
22682;DHT22;11508;50.856;4.380;2023-04-03T08:49:59;7.50;99.90
22682;DHT22;11508;50.856;4.380;2023-04-03T08:52:34;7.70;1.00
22682;DHT22;11508;50.856;4.380;2023-04-03T08:58:01;8.60;1.00
22682;DHT22;11508;50.856;4.380;2023-04-03T09:00:34;9.20;1.00
22682;DHT22;11508;50.856;4.380;2023-04-03T09:03:00;9.40;1.00
22682;DHT22;11508;50.856;4.380;2023-04-03T09:08:28;10.70;1.00
22682;DHT22;11508;50.856;4.380;2023-04-03T09:16:57;13.30;1.00
22682;DHT22;11508;50.856;4.380;2023-04-03T09:21:50;13.10;99.90
22682;DHT22;11508;50.856;4.380;2023-04-03T09:24:17;11.80;99.90
22682;DHT22;11508;50.856;4.380;2023-04-03T09:27:04;10.40;99.90
22682;DHT22;11508;50.856;4.380;2023-04-03T09:29:33;9.60;99.90
22682;DHT22;11508;50.856;4.380;2023-04-03T09:32:02;9.50;1.00
22682;DHT22;11508;50.856;4.380;2023-04-03T09:34:30;9.40;1.00
22682;DHT22;11508;50.856;4.380;2023-04-03T09:37:01;9.40;1.00
22682;DHT22;11508;50.856;4.380;2023-04-03T09:39:52;9.40;1.00
22682;DHT22;11508;50.856;4.380;2023-04-03T09:42:22;9.70;1.00
22682;DHT22;11508;50.856;4.380;2023-04-03T09:45:00;9.90;1.00
22682;DHT22;11508;50.856;4.380;2023-04-03T09:47:34;9.70;99.90
22682;DHT22;11508;50.856;4.380;2023-04-03T09:50:20;9.70;99.90
22682;DHT22;11508;50.856;4.380;2023-04-03T09:52:51;9.20;1.00
22682;DHT22;11508;50.856;4.380;2023-04-03T09:55:25;9.50;1.00
22682;DHT22;11508;50.856;4.380;2023-04-03T09:58:02;9.50;1.00
22682;DHT22;11508;50.856;4.380;2023-04-03T10:00:35;9.70;1.00
22682;DHT22;11508;50.856;4.380;2023-04-03T10:03:02;10.10;1.00
22682;DHT22;11508;50.856;4.380;2023-04-03T10:05:39;10.50;99.90
22682;DHT22;11508;50.856;4.380;2023-04-03T10:11:14;11.50;99.90
22682;DHT22;11508;50.856;4.380;2023-04-03T10:13:57;11.60;99.90
22682;DHT22;11508;50.856;4.380;2023-04-03T10:16:55;12.70;99.90
22682;DHT22;11508;50.856;4.380;2023-04-03T10:22:18;14.40;99.90
22682;DHT22;11508;50.856;4.380;2023-04-03T10:26:06;14.10;99.90
22682;DHT22;11508;50.856;4.380;2023-04-03T10:28:05;14.20;99.90
22682;DHT22;11508;50.856;4.380;2023-04-03T10:30:48;13.40;99.90
22682;DHT22;11508;50.856;4.380;2023-04-03T10:36:09;13.70;99.90
22682;DHT22;11508;50.856;4.380;2023-04-03T10:38:57;14.40;99.90
22682;DHT22;11508;50.856;4.380;2023-04-03T10:52:24;15.70;99.90
22682;DHT22;11508;50.856;4.380;2023-04-03T10:57:56;15.00;99.90
22682;DHT22;11508;50.856;4.380;2023-04-03T11:00:33;15.10;99.90
22682;DHT22;11508;50.856;4.380;2023-04-03T11:03:15;15.70;99.50
22682;DHT22;11508;50.856;4.380;2023-04-03T11:06:01;15.90;92.00
22682;DHT22;11508;50.856;4.380;2023-04-03T11:11:35;15.20;79.10
22682;DHT22;11508;50.856;4.380;2023-04-03T11:14:26;15.10;74.40
22682;DHT22;11508;50.856;4.380;2023-04-03T11:22:33;14.10;41.80
22682;DHT22;11508;50.856;4.380;2023-04-03T11:27:59;13.80;59.00
22682;DHT22;11508;50.856;4.380;2023-04-03T11:36:07;14.90;63.30
22682;DHT22;11508;50.856;4.380;2023-04-03T11:38:37;15.40;67.10
22682;DHT22;11508;50.856;4.380;2023-04-03T11:41:08;15.50;66.00
22682;DHT22;11508;50.856;4.380;2023-04-03T11:43:41;15.80;61.00
22682;DHT22;11508;50.856;4.380;2023-04-03T11:46:08;15.40;54.40
22682;DHT22;11508;50.856;4.380;2023-04-03T11:53:39;15.40;41.90
22682;DHT22;11508;50.856;4.380;2023-04-03T11:56:32;15.30;40.90
22682;DHT22;11508;50.856;4.380;2023-04-03T12:02:02;15.80;41.50
22682;DHT22;11508;50.856;4.380;2023-04-03T12:04:28;15.30;37.60
22682;DHT22;11508;50.856;4.380;2023-04-03T12:07:01;14.80;39.50
22682;DHT22;11508;50.856;4.380;2023-04-03T12:12:36;15.90;59.70
22682;DHT22;11508;50.856;4.380;2023-04-03T12:15:25;16.00;44.10
22682;DHT22;11508;50.856;4.380;2023-04-03T12:17:52;16.00;35.70
22682;DHT22;11508;50.856;4.380;2023-04-03T12:20:53;15.40;22.40
22682;DHT22;11508;50.856;4.380;2023-04-03T12:23:55;15.20;18.40
22682;DHT22;11508;50.856;4.380;2023-04-03T12:26:25;14.70;7.00
22682;DHT22;11508;50.856;4.380;2023-04-03T12:28:53;14.60;9.80
22682;DHT22;11508;50.856;4.380;2023-04-03T12:31:19;13.80;4.40
22682;DHT22;11508;50.856;4.380;2023-04-03T12:34:09;13.70;9.40
22682;DHT22;11508;50.856;4.380;2023-04-03T12:36:42;13.90;6.50
22682;DHT22;11508;50.856;4.380;2023-04-03T12:47:43;13.30;4.70
22682;DHT22;11508;50.856;4.380;2023-04-03T12:52:52;12.90;1.30
22682;DHT22;11508;50.856;4.380;2023-04-03T12:55:20;13.10;5.80
22682;DHT22;11508;50.856;4.380;2023-04-03T12:57:48;13.80;3.00
22682;DHT22;11508;50.856;4.380;2023-04-03T13:02:56;13.50;1.00
22682;DHT22;11508;50.856;4.380;2023-04-03T13:05:22;13.50;1.00
22682;DHT22;11508;50.856;4.380;2023-04-03T13:08:10;13.90;1.30
22682;DHT22;11508;50.856;4.380;2023-04-03T13:11:10;14.10;1.50
22682;DHT22;11508;50.856;4.380;2023-04-03T13:13:38;14.50;4.20
22682;DHT22;11508;50.856;4.380;2023-04-03T13:16:15;14.50;1.00
22682;DHT22;11508;50.856;4.380;2023-04-03T13:18:42;14.10;1.00
22682;DHT22;11508;50.856;4.380;2023-04-03T13:21:10;14.30;1.00
22682;DHT22;11508;50.856;4.380;2023-04-03T13:23:42;14.60;1.00
22682;DHT22;11508;50.856;4.380;2023-04-03T13:26:11;14.20;1.00
22682;DHT22;11508;50.856;4.380;2023-04-03T13:28:39;14.00;1.00
22682;DHT22;11508;50.856;4.380;2023-04-03T13:34:19;13.70;1.00
22682;DHT22;11508;50.856;4.380;2023-04-03T13:36:58;14.10;1.00
22682;DHT22;11508;50.856;4.380;2023-04-03T13:39:37;13.50;1.00
22682;DHT22;11508;50.856;4.380;2023-04-03T13:42:39;13.10;1.00
22682;DHT22;11508;50.856;4.380;2023-04-03T13:47:43;13.20;1.00
22682;DHT22;11508;50.856;4.380;2023-04-03T13:52:53;13.30;1.00
22682;DHT22;11508;50.856;4.380;2023-04-03T13:55:59;13.40;1.00
22682;DHT22;11508;50.856;4.380;2023-04-03T13:58:28;13.80;1.00
22682;DHT22;11508;50.856;4.380;2023-04-03T14:03:42;13.90;1.00
22682;DHT22;11508;50.856;4.380;2023-04-03T14:06:11;14.00;1.00
22682;DHT22;11508;50.856;4.380;2023-04-03T14:08:36;13.30;1.00
22682;DHT22;11508;50.856;4.380;2023-04-03T14:11:02;13.30;1.00
22682;DHT22;11508;50.856;4.380;2023-04-03T14:13:32;13.40;1.00
22682;DHT22;11508;50.856;4.380;2023-04-03T14:15:59;13.30;1.00
22682;DHT22;11508;50.856;4.380;2023-04-03T14:18:25;13.10;1.00
22682;DHT22;11508;50.856;4.380;2023-04-03T14:20:51;13.00;1.00
22682;DHT22;11508;50.856;4.380;2023-04-03T14:23:17;12.80;1.00
22682;DHT22;11508;50.856;4.380;2023-04-03T14:25:42;12.70;1.00
22682;DHT22;11508;50.856;4.380;2023-04-03T14:28:20;12.70;1.00
22682;DHT22;11508;50.856;4.380;2023-04-03T14:30:48;12.60;1.00
22682;DHT22;11508;50.856;4.380;2023-04-03T14:33:18;12.30;1.00
22682;DHT22;11508;50.856;4.380;2023-04-03T14:35:45;11.70;1.00
22682;DHT22;11508;50.856;4.380;2023-04-03T14:38:26;11.60;1.00
22682;DHT22;11508;50.856;4.380;2023-04-03T14:40:53;11.40;1.00
22682;DHT22;11508;50.856;4.380;2023-04-03T14:43:19;11.60;1.00
22682;DHT22;11508;50.856;4.380;2023-04-03T14:45:46;11.50;1.00
22682;DHT22;11508;50.856;4.380;2023-04-03T14:48:22;11.50;1.00
22682;DHT22;11508;50.856;4.380;2023-04-03T14:50:50;11.40;1.00
22682;DHT22;11508;50.856;4.380;2023-04-03T14:53:16;11.20;1.00
22682;DHT22;11508;50.856;4.380;2023-04-03T14:55:46;11.10;1.00
22682;DHT22;11508;50.856;4.380;2023-04-03T14:58:19;10.90;1.00
22682;DHT22;11508;50.856;4.380;2023-04-03T15:00:45;10.80;1.00
22682;DHT22;11508;50.856;4.380;2023-04-03T15:03:20;10.80;1.00
22682;DHT22;11508;50.856;4.380;2023-04-03T15:05:48;10.90;1.00
22682;DHT22;11508;50.856;4.380;2023-04-03T15:08:25;11.00;1.00
22682;DHT22;11508;50.856;4.380;2023-04-03T15:10:52;11.10;1.00
22682;DHT22;11508;50.856;4.380;2023-04-03T15:13:19;11.00;1.00
22682;DHT22;11508;50.856;4.380;2023-04-03T15:15:46;10.90;1.00
22682;DHT22;11508;50.856;4.380;2023-04-03T15:18:27;11.00;1.00
22682;DHT22;11508;50.856;4.380;2023-04-03T15:21:09;11.00;1.00
22682;DHT22;11508;50.856;4.380;2023-04-03T15:23:34;10.80;1.00
22682;DHT22;11508;50.856;4.380;2023-04-03T15:26:01;11.00;1.00
22682;DHT22;11508;50.856;4.380;2023-04-03T15:28:42;11.20;1.00
22682;DHT22;11508;50.856;4.380;2023-04-03T15:31:26;11.20;1.00
22682;DHT22;11508;50.856;4.380;2023-04-03T15:33:52;11.10;1.00
22682;DHT22;11508;50.856;4.380;2023-04-03T15:36:25;11.00;1.00
22682;DHT22;11508;50.856;4.380;2023-04-03T15:39:15;11.30;1.00
22682;DHT22;11508;50.856;4.380;2023-04-03T15:41:44;11.50;1.00
22682;DHT22;11508;50.856;4.380;2023-04-03T15:44:19;11.60;1.00
22682;DHT22;11508;50.856;4.380;2023-04-03T15:46:48;11.60;1.00
22682;DHT22;11508;50.856;4.380;2023-04-03T15:49:19;11.10;1.00
22682;DHT22;11508;50.856;4.380;2023-04-03T15:51:46;11.00;1.00
22682;DHT22;11508;50.856;4.380;2023-04-03T15:54:12;10.80;1.00
22682;DHT22;11508;50.856;4.380;2023-04-03T15:56:38;10.80;1.00
22682;DHT22;11508;50.856;4.380;2023-04-03T15:59:04;10.90;1.00
22682;DHT22;11508;50.856;4.380;2023-04-03T16:01:29;10.90;1.00
22682;DHT22;11508;50.856;4.380;2023-04-03T16:03:56;10.90;1.00
22682;DHT22;11508;50.856;4.380;2023-04-03T16:06:24;10.90;1.00
22682;DHT22;11508;50.856;4.380;2023-04-03T16:08:51;11.10;1.00
22682;DHT22;11508;50.856;4.380;2023-04-03T16:11:22;11.10;1.00
22682;DHT22;11508;50.856;4.380;2023-04-03T16:13:47;11.10;1.00
22682;DHT22;11508;50.856;4.380;2023-04-03T16:16:15;10.90;1.00
22682;DHT22;11508;50.856;4.380;2023-04-03T16:18:40;11.10;1.00
22682;DHT22;11508;50.856;4.380;2023-04-03T16:21:06;11.10;1.00
22682;DHT22;11508;50.856;4.380;2023-04-03T16:23:33;11.00;1.00
22682;DHT22;11508;50.856;4.380;2023-04-03T16:25:59;11.30;1.00
22682;DHT22;11508;50.856;4.380;2023-04-03T16:28:25;11.20;1.00
22682;DHT22;11508;50.856;4.380;2023-04-03T16:30:52;10.80;1.00
22682;DHT22;11508;50.856;4.380;2023-04-03T16:33:18;10.70;1.00
22682;DHT22;11508;50.856;4.380;2023-04-03T16:35:47;10.80;1.00
22682;DHT22;11508;50.856;4.380;2023-04-03T16:38:14;10.80;1.00
22682;DHT22;11508;50.856;4.380;2023-04-03T16:40:40;10.70;1.00
22682;DHT22;11508;50.856;4.380;2023-04-03T16:43:06;10.50;1.00
22682;DHT22;11508;50.856;4.380;2023-04-03T16:45:32;10.50;1.00
22682;DHT22;11508;50.856;4.380;2023-04-03T16:47:57;10.70;1.00
22682;DHT22;11508;50.856;4.380;2023-04-03T16:50:23;10.50;1.00
22682;DHT22;11508;50.856;4.380;2023-04-03T16:52:49;10.70;1.00
22682;DHT22;11508;50.856;4.380;2023-04-03T16:55:14;10.60;1.00
22682;DHT22;11508;50.856;4.380;2023-04-03T16:57:40;10.40;1.00
22682;DHT22;11508;50.856;4.380;2023-04-03T17:00:07;10.60;1.00
22682;DHT22;11508;50.856;4.380;2023-04-03T17:02:34;10.60;1.00
22682;DHT22;11508;50.856;4.380;2023-04-03T17:05:00;10.50;1.00
22682;DHT22;11508;50.856;4.380;2023-04-03T17:07:26;10.40;1.00
22682;DHT22;11508;50.856;4.380;2023-04-03T17:09:52;10.50;1.00
22682;DHT22;11508;50.856;4.380;2023-04-03T17:12:21;10.50;1.00
22682;DHT22;11508;50.856;4.380;2023-04-03T17:14:47;10.50;1.00
22682;DHT22;11508;50.856;4.380;2023-04-03T17:17:15;10.60;1.00
22682;DHT22;11508;50.856;4.380;2023-04-03T17:19:43;10.70;1.00
22682;DHT22;11508;50.856;4.380;2023-04-03T17:22:09;10.70;1.00
22682;DHT22;11508;50.856;4.380;2023-04-03T17:24:35;10.80;1.00
22682;DHT22;11508;50.856;4.380;2023-04-03T17:27:02;10.80;1.00
22682;DHT22;11508;50.856;4.380;2023-04-03T17:29:27;10.50;1.00
22682;DHT22;11508;50.856;4.380;2023-04-03T17:31:53;10.50;1.00
22682;DHT22;11508;50.856;4.380;2023-04-03T17:34:19;10.60;1.00
22682;DHT22;11508;50.856;4.380;2023-04-03T17:36:44;10.50;1.00
22682;DHT22;11508;50.856;4.380;2023-04-03T17:39:10;10.30;1.00
22682;DHT22;11508;50.856;4.380;2023-04-03T17:41:36;10.20;1.00
22682;DHT22;11508;50.856;4.380;2023-04-03T17:44:03;10.10;1.00